sensor_id;sensor_type;location;lat;lon;timestamp;temperature;humidity
40676;DHT22;26359;48.750;9.314;2023-09-19T00:02:22;17.20;99.90
40676;DHT22;26359;48.750;9.314;2023-09-19T00:04:48;17.20;99.90
40676;DHT22;26359;48.750;9.314;2023-09-19T00:07:15;17.20;99.90
40676;DHT22;26359;48.750;9.314;2023-09-19T00:09:41;17.20;99.90
40676;DHT22;26359;48.750;9.314;2023-09-19T00:12:09;17.20;99.90
40676;DHT22;26359;48.750;9.314;2023-09-19T00:14:35;17.20;99.90
40676;DHT22;26359;48.750;9.314;2023-09-19T00:17:01;17.10;99.90
40676;DHT22;26359;48.750;9.314;2023-09-19T00:19:36;17.20;99.90
40676;DHT22;26359;48.750;9.314;2023-09-19T00:22:02;17.10;99.90
40676;DHT22;26359;48.750;9.314;2023-09-19T00:24:28;17.10;99.90
40676;DHT22;26359;48.750;9.314;2023-09-19T00:26:54;17.10;99.90
40676;DHT22;26359;48.750;9.314;2023-09-19T00:29:21;17.10;99.90
40676;DHT22;26359;48.750;9.314;2023-09-19T00:31:46;17.10;99.90
40676;DHT22;26359;48.750;9.314;2023-09-19T00:34:12;17.00;99.90
40676;DHT22;26359;48.750;9.314;2023-09-19T00:36:37;17.00;99.90
40676;DHT22;26359;48.750;9.314;2023-09-19T00:39:05;17.10;99.90
40676;DHT22;26359;48.750;9.314;2023-09-19T00:41:32;17.10;99.90
40676;DHT22;26359;48.750;9.314;2023-09-19T00:43:57;17.10;99.90
40676;DHT22;26359;48.750;9.314;2023-09-19T00:46:25;17.10;99.90
40676;DHT22;26359;48.750;9.314;2023-09-19T00:48:51;17.10;99.90
40676;DHT22;26359;48.750;9.314;2023-09-19T00:51:16;17.10;99.90
40676;DHT22;26359;48.750;9.314;2023-09-19T00:53:46;17.10;99.90
40676;DHT22;26359;48.750;9.314;2023-09-19T00:56:13;17.10;99.90
40676;DHT22;26359;48.750;9.314;2023-09-19T00:58:39;17.10;99.90
40676;DHT22;26359;48.750;9.314;2023-09-19T01:01:05;17.10;99.90
40676;DHT22;26359;48.750;9.314;2023-09-19T01:03:33;17.10;99.90
40676;DHT22;26359;48.750;9.314;2023-09-19T01:05:59;17.20;99.90
40676;DHT22;26359;48.750;9.314;2023-09-19T01:08:26;17.10;99.90
40676;DHT22;26359;48.750;9.314;2023-09-19T01:11:01;17.20;99.90
40676;DHT22;26359;48.750;9.314;2023-09-19T01:13:37;17.20;99.90
40676;DHT22;26359;48.750;9.314;2023-09-19T01:27:39;17.10;99.90
40676;DHT22;26359;48.750;9.314;2023-09-19T01:30:16;17.20;99.90
40676;DHT22;26359;48.750;9.314;2023-09-19T01:32:42;17.20;99.90
40676;DHT22;26359;48.750;9.314;2023-09-19T01:35:08;17.10;99.90
40676;DHT22;26359;48.750;9.314;2023-09-19T01:37:38;17.20;99.90
40676;DHT22;26359;48.750;9.314;2023-09-19T01:40:08;17.20;99.90
40676;DHT22;26359;48.750;9.314;2023-09-19T01:42:49;17.20;99.90
40676;DHT22;26359;48.750;9.314;2023-09-19T01:48:43;17.10;99.90
40676;DHT22;26359;48.750;9.314;2023-09-19T01:51:21;17.10;99.90
40676;DHT22;26359;48.750;9.314;2023-09-19T01:54:01;17.20;99.90
40676;DHT22;26359;48.750;9.314;2023-09-19T01:59:10;17.20;99.90
40676;DHT22;26359;48.750;9.314;2023-09-19T02:01:37;17.20;99.90
40676;DHT22;26359;48.750;9.314;2023-09-19T02:04:03;17.20;99.90
40676;DHT22;26359;48.750;9.314;2023-09-19T02:06:29;17.20;99.90
40676;DHT22;26359;48.750;9.314;2023-09-19T02:08:55;17.10;99.90
40676;DHT22;26359;48.750;9.314;2023-09-19T02:11:21;17.10;99.90
40676;DHT22;26359;48.750;9.314;2023-09-19T02:13:47;17.10;99.90
40676;DHT22;26359;48.750;9.314;2023-09-19T02:16:12;17.10;99.90
40676;DHT22;26359;48.750;9.314;2023-09-19T02:18:39;17.10;99.90
40676;DHT22;26359;48.750;9.314;2023-09-19T02:21:04;17.10;99.90
40676;DHT22;26359;48.750;9.314;2023-09-19T02:23:32;17.10;99.90
40676;DHT22;26359;48.750;9.314;2023-09-19T02:25:58;17.10;99.90
40676;DHT22;26359;48.750;9.314;2023-09-19T02:28:26;17.10;99.90
40676;DHT22;26359;48.750;9.314;2023-09-19T02:30:56;17.10;99.90
40676;DHT22;26359;48.750;9.314;2023-09-19T02:33:21;17.00;99.90
40676;DHT22;26359;48.750;9.314;2023-09-19T02:35:47;17.00;99.90
40676;DHT22;26359;48.750;9.314;2023-09-19T02:38:13;17.00;99.90
40676;DHT22;26359;48.750;9.314;2023-09-19T02:40:39;17.00;99.90
40676;DHT22;26359;48.750;9.314;2023-09-19T02:43:05;17.00;99.90
40676;DHT22;26359;48.750;9.314;2023-09-19T02:45:31;17.00;99.90
40676;DHT22;26359;48.750;9.314;2023-09-19T02:47:57;16.90;99.90
40676;DHT22;26359;48.750;9.314;2023-09-19T02:50:23;16.90;99.90
40676;DHT22;26359;48.750;9.314;2023-09-19T02:52:49;16.80;99.90
40676;DHT22;26359;48.750;9.314;2023-09-19T02:55:16;16.80;99.90
40676;DHT22;26359;48.750;9.314;2023-09-19T02:57:48;16.80;99.90
40676;DHT22;26359;48.750;9.314;2023-09-19T03:00:15;16.80;99.90
40676;DHT22;26359;48.750;9.314;2023-09-19T03:02:41;16.70;99.90
40676;DHT22;26359;48.750;9.314;2023-09-19T03:05:07;16.70;99.90
40676;DHT22;26359;48.750;9.314;2023-09-19T03:07:33;16.70;99.90
40676;DHT22;26359;48.750;9.314;2023-09-19T03:09:59;16.70;99.90
40676;DHT22;26359;48.750;9.314;2023-09-19T03:12:26;16.70;99.90
40676;DHT22;26359;48.750;9.314;2023-09-19T03:14:51;16.70;99.90
40676;DHT22;26359;48.750;9.314;2023-09-19T03:17:17;16.70;99.90
40676;DHT22;26359;48.750;9.314;2023-09-19T03:19:45;16.70;99.90
40676;DHT22;26359;48.750;9.314;2023-09-19T03:22:10;16.70;99.90
40676;DHT22;26359;48.750;9.314;2023-09-19T03:24:36;16.70;99.90
40676;DHT22;26359;48.750;9.314;2023-09-19T03:27:03;16.70;99.90
40676;DHT22;26359;48.750;9.314;2023-09-19T03:29:28;16.80;99.90
40676;DHT22;26359;48.750;9.314;2023-09-19T03:31:54;16.80;99.90
40676;DHT22;26359;48.750;9.314;2023-09-19T03:34:20;16.80;99.90
40676;DHT22;26359;48.750;9.314;2023-09-19T03:36:46;16.80;99.90
40676;DHT22;26359;48.750;9.314;2023-09-19T03:39:11;16.80;99.90
40676;DHT22;26359;48.750;9.314;2023-09-19T03:41:37;16.80;99.90
40676;DHT22;26359;48.750;9.314;2023-09-19T03:44:02;16.80;99.90
40676;DHT22;26359;48.750;9.314;2023-09-19T03:46:28;16.80;99.90
40676;DHT22;26359;48.750;9.314;2023-09-19T03:48:55;16.80;99.90
40676;DHT22;26359;48.750;9.314;2023-09-19T03:51:21;16.80;99.90
40676;DHT22;26359;48.750;9.314;2023-09-19T03:53:47;16.80;99.90
40676;DHT22;26359;48.750;9.314;2023-09-19T03:56:14;16.80;99.90
40676;DHT22;26359;48.750;9.314;2023-09-19T03:58:40;16.80;99.90
40676;DHT22;26359;48.750;9.314;2023-09-19T04:01:05;16.80;99.90
40676;DHT22;26359;48.750;9.314;2023-09-19T04:03:33;16.80;99.90
40676;DHT22;26359;48.750;9.314;2023-09-19T04:06:15;16.80;99.90
40676;DHT22;26359;48.750;9.314;2023-09-19T04:08:41;16.80;99.90
40676;DHT22;26359;48.750;9.314;2023-09-19T04:11:07;16.80;99.90
40676;DHT22;26359;48.750;9.314;2023-09-19T04:13:33;16.80;99.90
40676;DHT22;26359;48.750;9.314;2023-09-19T04:15:58;16.80;99.90
40676;DHT22;26359;48.750;9.314;2023-09-19T04:18:24;16.80;99.90
40676;DHT22;26359;48.750;9.314;2023-09-19T04:20:50;16.80;99.90
40676;DHT22;26359;48.750;9.314;2023-09-19T04:23:16;16.80;99.90
40676;DHT22;26359;48.750;9.314;2023-09-19T04:25:42;16.80;99.90
40676;DHT22;26359;48.750;9.314;2023-09-19T04:28:08;16.70;99.90
40676;DHT22;26359;48.750;9.314;2023-09-19T04:30:36;16.70;99.90
40676;DHT22;26359;48.750;9.314;2023-09-19T04:33:02;16.70;99.90
40676;DHT22;26359;48.750;9.314;2023-09-19T04:35:28;16.60;99.90
40676;DHT22;26359;48.750;9.314;2023-09-19T04:37:57;16.60;99.90
40676;DHT22;26359;48.750;9.314;2023-09-19T04:40:22;16.60;99.90
40676;DHT22;26359;48.750;9.314;2023-09-19T04:42:53;16.60;99.90
40676;DHT22;26359;48.750;9.314;2023-09-19T04:45:26;16.60;99.90
40676;DHT22;26359;48.750;9.314;2023-09-19T04:47:52;16.60;99.90
40676;DHT22;26359;48.750;9.314;2023-09-19T04:50:18;16.60;99.90
40676;DHT22;26359;48.750;9.314;2023-09-19T04:52:44;16.60;99.90
40676;DHT22;26359;48.750;9.314;2023-09-19T04:55:14;16.60;99.90
40676;DHT22;26359;48.750;9.314;2023-09-19T04:57:51;16.60;99.90
40676;DHT22;26359;48.750;9.314;2023-09-19T05:00:20;16.60;99.90
40676;DHT22;26359;48.750;9.314;2023-09-19T05:02:52;16.70;99.90
40676;DHT22;26359;48.750;9.314;2023-09-19T05:05:18;16.70;99.90
40676;DHT22;26359;48.750;9.314;2023-09-19T05:07:45;16.70;99.90
40676;DHT22;26359;48.750;9.314;2023-09-19T05:10:11;16.70;99.90
40676;DHT22;26359;48.750;9.314;2023-09-19T05:12:37;16.70;99.90
40676;DHT22;26359;48.750;9.314;2023-09-19T05:15:06;16.70;99.90
40676;DHT22;26359;48.750;9.314;2023-09-19T05:17:32;16.70;99.90
40676;DHT22;26359;48.750;9.314;2023-09-19T05:19:58;16.80;99.90
40676;DHT22;26359;48.750;9.314;2023-09-19T05:22:26;16.80;99.90
40676;DHT22;26359;48.750;9.314;2023-09-19T05:24:52;16.80;99.90
40676;DHT22;26359;48.750;9.314;2023-09-19T05:27:18;16.80;99.90
40676;DHT22;26359;48.750;9.314;2023-09-19T05:29:44;16.90;99.90
40676;DHT22;26359;48.750;9.314;2023-09-19T05:32:10;16.80;99.90
40676;DHT22;26359;48.750;9.314;2023-09-19T05:34:36;16.70;99.90
40676;DHT22;26359;48.750;9.314;2023-09-19T05:37:02;16.60;99.90
40676;DHT22;26359;48.750;9.314;2023-09-19T05:39:28;16.60;99.90
40676;DHT22;26359;48.750;9.314;2023-09-19T05:41:53;16.50;99.90
40676;DHT22;26359;48.750;9.314;2023-09-19T05:44:20;16.40;99.90
40676;DHT22;26359;48.750;9.314;2023-09-19T05:46:45;16.40;99.90
40676;DHT22;26359;48.750;9.314;2023-09-19T05:49:13;16.30;99.90
40676;DHT22;26359;48.750;9.314;2023-09-19T05:51:39;16.30;99.90
40676;DHT22;26359;48.750;9.314;2023-09-19T05:54:05;16.30;99.90
40676;DHT22;26359;48.750;9.314;2023-09-19T05:56:31;16.30;99.90
40676;DHT22;26359;48.750;9.314;2023-09-19T05:58:56;16.30;99.90
40676;DHT22;26359;48.750;9.314;2023-09-19T06:01:22;16.40;99.90
40676;DHT22;26359;48.750;9.314;2023-09-19T06:03:47;16.40;99.90
40676;DHT22;26359;48.750;9.314;2023-09-19T06:06:13;16.50;99.90
40676;DHT22;26359;48.750;9.314;2023-09-19T06:08:39;16.40;99.90
40676;DHT22;26359;48.750;9.314;2023-09-19T06:11:04;16.30;99.90
40676;DHT22;26359;48.750;9.314;2023-09-19T06:13:34;16.30;99.90
40676;DHT22;26359;48.750;9.314;2023-09-19T06:16:00;16.20;99.90
40676;DHT22;26359;48.750;9.314;2023-09-19T06:18:31;16.20;99.90
40676;DHT22;26359;48.750;9.314;2023-09-19T06:20:59;16.00;99.90
40676;DHT22;26359;48.750;9.314;2023-09-19T06:23:25;16.00;99.90
40676;DHT22;26359;48.750;9.314;2023-09-19T06:25:54;16.00;99.90
40676;DHT22;26359;48.750;9.314;2023-09-19T06:28:20;15.90;99.90
40676;DHT22;26359;48.750;9.314;2023-09-19T06:30:50;15.90;99.90
40676;DHT22;26359;48.750;9.314;2023-09-19T06:33:15;15.90;99.90
40676;DHT22;26359;48.750;9.314;2023-09-19T06:35:42;16.00;99.90
40676;DHT22;26359;48.750;9.314;2023-09-19T06:38:12;15.90;99.90
40676;DHT22;26359;48.750;9.314;2023-09-19T06:40:38;15.90;99.90
40676;DHT22;26359;48.750;9.314;2023-09-19T06:43:05;16.00;99.90
40676;DHT22;26359;48.750;9.314;2023-09-19T06:45:30;16.00;99.90
40676;DHT22;26359;48.750;9.314;2023-09-19T06:47:57;16.00;99.90
40676;DHT22;26359;48.750;9.314;2023-09-19T06:50:23;15.90;99.90
40676;DHT22;26359;48.750;9.314;2023-09-19T06:52:50;16.00;99.90
40676;DHT22;26359;48.750;9.314;2023-09-19T06:55:17;16.00;99.90
40676;DHT22;26359;48.750;9.314;2023-09-19T06:57:45;16.10;99.90
40676;DHT22;26359;48.750;9.314;2023-09-19T07:00:12;16.10;99.90
40676;DHT22;26359;48.750;9.314;2023-09-19T07:02:41;16.10;99.90
40676;DHT22;26359;48.750;9.314;2023-09-19T07:05:07;16.20;99.90
40676;DHT22;26359;48.750;9.314;2023-09-19T07:07:33;16.30;99.90
40676;DHT22;26359;48.750;9.314;2023-09-19T07:10:01;16.30;99.90
40676;DHT22;26359;48.750;9.314;2023-09-19T07:12:26;16.40;99.90
40676;DHT22;26359;48.750;9.314;2023-09-19T07:14:52;16.40;99.90
40676;DHT22;26359;48.750;9.314;2023-09-19T07:17:17;16.50;99.90
40676;DHT22;26359;48.750;9.314;2023-09-19T07:19:44;16.40;99.90
40676;DHT22;26359;48.750;9.314;2023-09-19T07:22:10;16.50;99.90
40676;DHT22;26359;48.750;9.314;2023-09-19T07:24:35;16.60;99.90
40676;DHT22;26359;48.750;9.314;2023-09-19T07:27:02;16.60;99.90
40676;DHT22;26359;48.750;9.314;2023-09-19T07:29:28;16.60;99.90
40676;DHT22;26359;48.750;9.314;2023-09-19T07:31:53;16.70;99.90
40676;DHT22;26359;48.750;9.314;2023-09-19T07:34:19;16.80;99.90
40676;DHT22;26359;48.750;9.314;2023-09-19T07:36:47;16.80;99.90
40676;DHT22;26359;48.750;9.314;2023-09-19T07:39:13;16.90;99.90
40676;DHT22;26359;48.750;9.314;2023-09-19T07:41:38;16.90;99.90
40676;DHT22;26359;48.750;9.314;2023-09-19T07:44:04;16.90;99.90
40676;DHT22;26359;48.750;9.314;2023-09-19T07:46:30;16.90;99.90
40676;DHT22;26359;48.750;9.314;2023-09-19T07:48:57;16.90;99.90
40676;DHT22;26359;48.750;9.314;2023-09-19T07:51:22;16.90;99.90
40676;DHT22;26359;48.750;9.314;2023-09-19T07:53:48;17.00;99.90
40676;DHT22;26359;48.750;9.314;2023-09-19T07:56:14;17.10;99.90
40676;DHT22;26359;48.750;9.314;2023-09-19T07:58:40;17.10;99.90
40676;DHT22;26359;48.750;9.314;2023-09-19T08:01:10;17.10;99.90
40676;DHT22;26359;48.750;9.314;2023-09-19T08:03:36;17.20;99.90
40676;DHT22;26359;48.750;9.314;2023-09-19T08:06:06;17.30;99.90
40676;DHT22;26359;48.750;9.314;2023-09-19T08:08:32;17.30;99.90
40676;DHT22;26359;48.750;9.314;2023-09-19T08:10:59;17.30;99.90
40676;DHT22;26359;48.750;9.314;2023-09-19T08:13:26;17.20;99.90
40676;DHT22;26359;48.750;9.314;2023-09-19T08:15:52;17.30;99.90
40676;DHT22;26359;48.750;9.314;2023-09-19T08:18:21;17.30;99.90
40676;DHT22;26359;48.750;9.314;2023-09-19T08:20:52;17.30;99.90
40676;DHT22;26359;48.750;9.314;2023-09-19T08:23:18;17.30;99.90
40676;DHT22;26359;48.750;9.314;2023-09-19T08:25:45;17.40;99.90
40676;DHT22;26359;48.750;9.314;2023-09-19T08:28:11;17.50;99.90
40676;DHT22;26359;48.750;9.314;2023-09-19T08:30:39;17.50;99.90
40676;DHT22;26359;48.750;9.314;2023-09-19T08:33:06;17.50;99.90
40676;DHT22;26359;48.750;9.314;2023-09-19T08:35:32;17.70;99.90
40676;DHT22;26359;48.750;9.314;2023-09-19T08:37:58;17.70;99.90
40676;DHT22;26359;48.750;9.314;2023-09-19T08:40:26;17.80;99.90
40676;DHT22;26359;48.750;9.314;2023-09-19T08:42:55;17.90;99.90
40676;DHT22;26359;48.750;9.314;2023-09-19T08:45:22;18.00;99.90
40676;DHT22;26359;48.750;9.314;2023-09-19T08:50:43;18.10;99.90
40676;DHT22;26359;48.750;9.314;2023-09-19T08:53:17;18.20;99.90
40676;DHT22;26359;48.750;9.314;2023-09-19T08:55:46;18.30;99.90
40676;DHT22;26359;48.750;9.314;2023-09-19T08:58:26;18.30;99.90
40676;DHT22;26359;48.750;9.314;2023-09-19T09:00:54;18.30;99.90
40676;DHT22;26359;48.750;9.314;2023-09-19T09:03:22;18.30;99.90
40676;DHT22;26359;48.750;9.314;2023-09-19T09:05:49;18.30;99.90
40676;DHT22;26359;48.750;9.314;2023-09-19T09:08:16;18.30;99.90
40676;DHT22;26359;48.750;9.314;2023-09-19T09:10:44;18.40;99.90
40676;DHT22;26359;48.750;9.314;2023-09-19T09:13:12;18.50;99.90
40676;DHT22;26359;48.750;9.314;2023-09-19T09:15:41;18.80;99.90
40676;DHT22;26359;48.750;9.314;2023-09-19T09:18:06;19.00;99.90
40676;DHT22;26359;48.750;9.314;2023-09-19T09:20:32;19.20;99.90
40676;DHT22;26359;48.750;9.314;2023-09-19T09:22:57;19.40;99.90
40676;DHT22;26359;48.750;9.314;2023-09-19T09:25:52;19.50;99.90
40676;DHT22;26359;48.750;9.314;2023-09-19T09:28:23;19.50;99.90
40676;DHT22;26359;48.750;9.314;2023-09-19T09:30:49;19.30;99.90
40676;DHT22;26359;48.750;9.314;2023-09-19T09:33:16;19.10;99.90
40676;DHT22;26359;48.750;9.314;2023-09-19T09:35:55;19.10;99.90
40676;DHT22;26359;48.750;9.314;2023-09-19T09:38:30;19.20;99.90
40676;DHT22;26359;48.750;9.314;2023-09-19T09:41:09;19.20;99.90
40676;DHT22;26359;48.750;9.314;2023-09-19T09:43:36;19.10;99.90
40676;DHT22;26359;48.750;9.314;2023-09-19T09:46:16;19.20;99.90
40676;DHT22;26359;48.750;9.314;2023-09-19T09:48:55;19.20;99.90
40676;DHT22;26359;48.750;9.314;2023-09-19T09:51:43;19.20;99.90
40676;DHT22;26359;48.750;9.314;2023-09-19T09:54:15;19.40;99.90
40676;DHT22;26359;48.750;9.314;2023-09-19T09:57:01;19.40;99.90
40676;DHT22;26359;48.750;9.314;2023-09-19T09:59:46;19.50;99.90
40676;DHT22;26359;48.750;9.314;2023-09-19T10:02:38;19.60;99.90
40676;DHT22;26359;48.750;9.314;2023-09-19T10:07:52;19.70;99.90
40676;DHT22;26359;48.750;9.314;2023-09-19T10:10:35;20.00;99.90
40676;DHT22;26359;48.750;9.314;2023-09-19T10:13:09;20.30;99.90
40676;DHT22;26359;48.750;9.314;2023-09-19T10:15:39;20.70;99.90
40676;DHT22;26359;48.750;9.314;2023-09-19T10:18:10;21.10;99.90
40676;DHT22;26359;48.750;9.314;2023-09-19T10:20:45;21.40;99.90
40676;DHT22;26359;48.750;9.314;2023-09-19T10:23:11;21.50;99.90
40676;DHT22;26359;48.750;9.314;2023-09-19T10:25:44;21.40;99.90
40676;DHT22;26359;48.750;9.314;2023-09-19T10:28:15;21.40;99.90
40676;DHT22;26359;48.750;9.314;2023-09-19T10:30:46;21.30;99.90
40676;DHT22;26359;48.750;9.314;2023-09-19T10:33:17;21.50;99.90
40676;DHT22;26359;48.750;9.314;2023-09-19T10:35:48;21.90;99.90
40676;DHT22;26359;48.750;9.314;2023-09-19T10:38:17;22.10;99.90
40676;DHT22;26359;48.750;9.314;2023-09-19T10:40:52;22.30;99.90
40676;DHT22;26359;48.750;9.314;2023-09-19T10:43:19;22.50;99.90
40676;DHT22;26359;48.750;9.314;2023-09-19T10:45:47;22.60;99.90
40676;DHT22;26359;48.750;9.314;2023-09-19T10:48:18;22.80;99.90
40676;DHT22;26359;48.750;9.314;2023-09-19T10:53:40;23.00;99.90
40676;DHT22;26359;48.750;9.314;2023-09-19T10:56:08;23.30;99.90
40676;DHT22;26359;48.750;9.314;2023-09-19T10:58:40;23.50;99.90
40676;DHT22;26359;48.750;9.314;2023-09-19T11:01:11;23.80;99.90
40676;DHT22;26359;48.750;9.314;2023-09-19T11:03:44;23.80;99.90
40676;DHT22;26359;48.750;9.314;2023-09-19T11:06:12;24.20;99.90
40676;DHT22;26359;48.750;9.314;2023-09-19T11:30:41;23.80;99.90
40676;DHT22;26359;48.750;9.314;2023-09-19T11:36:35;23.50;99.90
40676;DHT22;26359;48.750;9.314;2023-09-19T11:39:01;23.90;99.90
40676;DHT22;26359;48.750;9.314;2023-09-19T11:41:42;23.70;99.90
40676;DHT22;26359;48.750;9.314;2023-09-19T11:49:19;24.00;99.90
40676;DHT22;26359;48.750;9.314;2023-09-19T11:51:50;24.00;99.90
40676;DHT22;26359;48.750;9.314;2023-09-19T11:54:17;24.50;99.90
40676;DHT22;26359;48.750;9.314;2023-09-19T11:56:54;24.60;99.90
40676;DHT22;26359;48.750;9.314;2023-09-19T11:59:20;24.50;99.90
40676;DHT22;26359;48.750;9.314;2023-09-19T12:01:51;24.20;99.90
40676;DHT22;26359;48.750;9.314;2023-09-19T12:04:39;24.20;99.90
40676;DHT22;26359;48.750;9.314;2023-09-19T12:07:11;24.50;99.90
40676;DHT22;26359;48.750;9.314;2023-09-19T12:09:45;24.90;99.90
40676;DHT22;26359;48.750;9.314;2023-09-19T12:12:23;25.10;99.90
40676;DHT22;26359;48.750;9.314;2023-09-19T12:14:53;25.10;99.90
40676;DHT22;26359;48.750;9.314;2023-09-19T12:17:19;25.00;99.90
40676;DHT22;26359;48.750;9.314;2023-09-19T12:19:52;25.10;99.90
40676;DHT22;26359;48.750;9.314;2023-09-19T12:22:17;25.00;99.90
40676;DHT22;26359;48.750;9.314;2023-09-19T12:24:45;25.20;99.90
40676;DHT22;26359;48.750;9.314;2023-09-19T12:27:12;25.30;99.90
40676;DHT22;26359;48.750;9.314;2023-09-19T12:29:46;25.10;99.90
40676;DHT22;26359;48.750;9.314;2023-09-19T12:32:14;25.30;99.90
40676;DHT22;26359;48.750;9.314;2023-09-19T12:34:42;25.30;99.90
40676;DHT22;26359;48.750;9.314;2023-09-19T12:37:10;25.10;99.90
40676;DHT22;26359;48.750;9.314;2023-09-19T12:39:46;25.10;99.90
40676;DHT22;26359;48.750;9.314;2023-09-19T12:42:15;25.30;99.90
40676;DHT22;26359;48.750;9.314;2023-09-19T12:44:43;25.20;99.90
40676;DHT22;26359;48.750;9.314;2023-09-19T12:47:11;25.30;99.90
40676;DHT22;26359;48.750;9.314;2023-09-19T12:52:51;25.70;99.90
40676;DHT22;26359;48.750;9.314;2023-09-19T13:00:35;25.60;99.90
40676;DHT22;26359;48.750;9.314;2023-09-19T13:08:20;25.70;99.90
40676;DHT22;26359;48.750;9.314;2023-09-19T13:11:06;25.70;99.90
40676;DHT22;26359;48.750;9.314;2023-09-19T13:13:34;26.00;99.90
40676;DHT22;26359;48.750;9.314;2023-09-19T13:16:02;25.70;99.90
40676;DHT22;26359;48.750;9.314;2023-09-19T13:18:28;25.90;99.90
40676;DHT22;26359;48.750;9.314;2023-09-19T13:21:08;25.90;99.90
40676;DHT22;26359;48.750;9.314;2023-09-19T13:23:43;26.20;99.90
40676;DHT22;26359;48.750;9.314;2023-09-19T13:26:10;26.40;99.90
40676;DHT22;26359;48.750;9.314;2023-09-19T13:28:37;26.50;99.90
40676;DHT22;26359;48.750;9.314;2023-09-19T13:31:02;26.60;99.90
40676;DHT22;26359;48.750;9.314;2023-09-19T13:33:28;26.40;99.90
40676;DHT22;26359;48.750;9.314;2023-09-19T13:35:54;26.10;99.90
40676;DHT22;26359;48.750;9.314;2023-09-19T13:38:20;26.10;99.90
40676;DHT22;26359;48.750;9.314;2023-09-19T13:40:47;25.90;99.90
40676;DHT22;26359;48.750;9.314;2023-09-19T13:43:13;26.10;99.90
40676;DHT22;26359;48.750;9.314;2023-09-19T13:45:39;26.10;99.90
40676;DHT22;26359;48.750;9.314;2023-09-19T13:48:07;26.00;99.90
40676;DHT22;26359;48.750;9.314;2023-09-19T13:50:34;25.50;99.90
40676;DHT22;26359;48.750;9.314;2023-09-19T13:53:02;25.40;99.90
40676;DHT22;26359;48.750;9.314;2023-09-19T13:55:28;25.60;99.90
40676;DHT22;26359;48.750;9.314;2023-09-19T13:57:53;25.50;99.90
40676;DHT22;26359;48.750;9.314;2023-09-19T14:00:24;25.30;99.90
40676;DHT22;26359;48.750;9.314;2023-09-19T14:02:49;25.30;99.90
40676;DHT22;26359;48.750;9.314;2023-09-19T14:05:16;25.30;99.90
40676;DHT22;26359;48.750;9.314;2023-09-19T14:07:45;25.30;99.90
40676;DHT22;26359;48.750;9.314;2023-09-19T14:10:11;25.30;99.90
40676;DHT22;26359;48.750;9.314;2023-09-19T14:12:37;25.30;99.90
40676;DHT22;26359;48.750;9.314;2023-09-19T14:15:06;25.30;99.90
40676;DHT22;26359;48.750;9.314;2023-09-19T14:17:32;25.40;99.90
40676;DHT22;26359;48.750;9.314;2023-09-19T14:19:58;25.30;99.90
40676;DHT22;26359;48.750;9.314;2023-09-19T14:22:23;25.20;99.90
40676;DHT22;26359;48.750;9.314;2023-09-19T14:24:49;25.30;99.90
40676;DHT22;26359;48.750;9.314;2023-09-19T14:27:14;25.10;99.90
40676;DHT22;26359;48.750;9.314;2023-09-19T14:29:40;25.10;99.90
40676;DHT22;26359;48.750;9.314;2023-09-19T14:32:06;25.10;99.90
40676;DHT22;26359;48.750;9.314;2023-09-19T14:34:32;24.90;99.90
40676;DHT22;26359;48.750;9.314;2023-09-19T14:36:58;24.80;99.90
40676;DHT22;26359;48.750;9.314;2023-09-19T14:39:24;24.60;99.90
40676;DHT22;26359;48.750;9.314;2023-09-19T14:41:50;24.30;99.90
40676;DHT22;26359;48.750;9.314;2023-09-19T14:44:16;24.20;99.90
40676;DHT22;26359;48.750;9.314;2023-09-19T14:46:42;24.00;99.90
40676;DHT22;26359;48.750;9.314;2023-09-19T14:49:09;23.80;99.90
40676;DHT22;26359;48.750;9.314;2023-09-19T14:51:37;23.90;99.90
40676;DHT22;26359;48.750;9.314;2023-09-19T14:54:03;23.90;99.90
40676;DHT22;26359;48.750;9.314;2023-09-19T14:56:29;24.10;99.90
40676;DHT22;26359;48.750;9.314;2023-09-19T14:58:56;24.10;99.90
40676;DHT22;26359;48.750;9.314;2023-09-19T15:01:21;24.20;99.90
40676;DHT22;26359;48.750;9.314;2023-09-19T15:03:47;24.20;99.90
40676;DHT22;26359;48.750;9.314;2023-09-19T15:06:15;24.20;99.90
40676;DHT22;26359;48.750;9.314;2023-09-19T15:08:43;24.20;99.90
40676;DHT22;26359;48.750;9.314;2023-09-19T15:11:16;24.10;99.90
40676;DHT22;26359;48.750;9.314;2023-09-19T15:13:43;24.00;99.90
40676;DHT22;26359;48.750;9.314;2023-09-19T15:16:09;23.90;99.90
40676;DHT22;26359;48.750;9.314;2023-09-19T15:18:36;23.80;99.90
40676;DHT22;26359;48.750;9.314;2023-09-19T15:21:12;23.70;99.90
40676;DHT22;26359;48.750;9.314;2023-09-19T15:23:39;23.70;99.90
40676;DHT22;26359;48.750;9.314;2023-09-19T15:26:12;23.60;99.90
40676;DHT22;26359;48.750;9.314;2023-09-19T15:28:38;23.60;99.90
40676;DHT22;26359;48.750;9.314;2023-09-19T15:31:06;23.50;99.90
40676;DHT22;26359;48.750;9.314;2023-09-19T15:33:32;23.40;99.90
40676;DHT22;26359;48.750;9.314;2023-09-19T15:36:03;23.40;99.90
40676;DHT22;26359;48.750;9.314;2023-09-19T15:38:29;23.30;99.90
40676;DHT22;26359;48.750;9.314;2023-09-19T15:40:55;23.20;99.90
40676;DHT22;26359;48.750;9.314;2023-09-19T15:43:20;23.10;99.90
40676;DHT22;26359;48.750;9.314;2023-09-19T15:45:47;23.00;99.90
40676;DHT22;26359;48.750;9.314;2023-09-19T15:48:13;23.00;99.90
40676;DHT22;26359;48.750;9.314;2023-09-19T15:50:39;23.00;99.90
40676;DHT22;26359;48.750;9.314;2023-09-19T15:53:07;23.00;99.90
40676;DHT22;26359;48.750;9.314;2023-09-19T15:55:38;23.00;99.90
40676;DHT22;26359;48.750;9.314;2023-09-19T15:58:05;23.00;99.90
40676;DHT22;26359;48.750;9.314;2023-09-19T16:00:32;23.00;99.90
40676;DHT22;26359;48.750;9.314;2023-09-19T16:03:00;23.00;99.90
40676;DHT22;26359;48.750;9.314;2023-09-19T16:05:26;23.00;99.90
40676;DHT22;26359;48.750;9.314;2023-09-19T16:07:52;23.00;99.90
40676;DHT22;26359;48.750;9.314;2023-09-19T16:10:17;22.90;99.90
40676;DHT22;26359;48.750;9.314;2023-09-19T16:12:43;22.80;99.90
40676;DHT22;26359;48.750;9.314;2023-09-19T16:15:09;22.70;99.90
40676;DHT22;26359;48.750;9.314;2023-09-19T16:17:37;22.70;99.90
40676;DHT22;26359;48.750;9.314;2023-09-19T16:20:02;22.60;99.90
40676;DHT22;26359;48.750;9.314;2023-09-19T16:22:29;22.50;99.90
40676;DHT22;26359;48.750;9.314;2023-09-19T16:24:55;22.40;99.90
40676;DHT22;26359;48.750;9.314;2023-09-19T16:27:20;22.40;99.90
40676;DHT22;26359;48.750;9.314;2023-09-19T16:29:47;22.30;99.90
40676;DHT22;26359;48.750;9.314;2023-09-19T16:32:14;22.30;99.90
40676;DHT22;26359;48.750;9.314;2023-09-19T16:34:40;22.30;99.90
40676;DHT22;26359;48.750;9.314;2023-09-19T16:37:06;22.20;99.90
40676;DHT22;26359;48.750;9.314;2023-09-19T16:39:32;22.10;99.90
40676;DHT22;26359;48.750;9.314;2023-09-19T16:41:58;22.10;99.90
40676;DHT22;26359;48.750;9.314;2023-09-19T16:44:23;22.10;99.90
40676;DHT22;26359;48.750;9.314;2023-09-19T16:46:49;22.00;99.90